createdAt,value
2024-03-16T00:00:26.097Z,97.90
2024-03-16T00:02:28.575Z,97.90
2024-03-16T00:04:37.442Z,97.90
2024-03-16T00:06:42.561Z,97.90
2024-03-16T00:08:50.364Z,97.90
2024-03-16T00:10:53.539Z,97.90
2024-03-16T00:12:59.541Z,97.90
2024-03-16T00:15:05.018Z,97.90
2024-03-16T00:17:10.577Z,97.90
2024-03-16T00:19:16.409Z,98.00
2024-03-16T00:21:24.759Z,98.00
2024-03-16T00:23:27.997Z,98.00
2024-03-16T00:25:33.184Z,98.00
2024-03-16T00:27:39.059Z,98.00
2024-03-16T00:29:44.369Z,97.90
2024-03-16T00:31:50.368Z,97.90
2024-03-16T00:33:56.202Z,97.90
2024-03-16T00:36:01.531Z,98.00
2024-03-16T00:38:11.787Z,98.00
2024-03-16T00:40:21.189Z,98.00
2024-03-16T00:42:27.115Z,98.00
2024-03-16T00:44:29.833Z,98.00
2024-03-16T00:46:35.334Z,98.10
2024-03-16T00:48:41.542Z,98.10
2024-03-16T00:50:46.690Z,98.10
2024-03-16T00:52:52.694Z,98.10
2024-03-16T00:55:01.153Z,98.10
2024-03-16T00:57:06.612Z,98.20
2024-03-16T00:59:11.719Z,98.20
2024-03-16T01:01:18.544Z,98.20
2024-03-16T01:03:25.030Z,98.20
2024-03-16T01:05:30.545Z,98.30
2024-03-16T01:07:35.684Z,98.30
2024-03-16T01:09:38.523Z,98.30
2024-03-16T01:11:46.843Z,98.30
2024-03-16T01:13:52.491Z,98.30
2024-03-16T01:15:57.867Z,98.30
2024-03-16T01:18:04.145Z,98.30
2024-03-16T01:20:10.849Z,98.30
2024-03-16T01:22:16.414Z,98.30
2024-03-16T01:24:39.989Z,98.30
2024-03-16T01:26:48.656Z,98.30
2024-03-16T01:29:00.776Z,98.30
2024-03-16T01:31:06.061Z,98.30
2024-03-16T01:33:11.611Z,98.30
2024-03-16T01:35:16.897Z,98.30
2024-03-16T01:37:22.524Z,98.30
2024-03-16T01:39:31.245Z,98.30
2024-03-16T01:41:36.486Z,98.30
2024-03-16T01:43:49.998Z,98.30
2024-03-16T01:45:55.273Z,98.30
2024-03-16T01:48:01.774Z,98.30
2024-03-16T01:50:09.077Z,98.30
2024-03-16T01:52:14.953Z,98.30
2024-03-16T01:54:21.292Z,98.30
2024-03-16T01:56:26.840Z,98.30
2024-03-16T01:58:32.034Z,98.30
2024-03-16T02:00:40.342Z,98.30
2024-03-16T02:02:46.476Z,98.30
2024-03-16T02:04:51.797Z,98.30
2024-03-16T02:06:57.626Z,98.30
2024-03-16T02:09:04.395Z,98.30
2024-03-16T02:11:09.834Z,98.30
2024-03-16T02:13:16.132Z,98.30
2024-03-16T02:15:22.613Z,98.30
2024-03-16T02:17:29.178Z,98.30
2024-03-16T02:19:34.498Z,98.20
2024-03-16T02:21:40.872Z,98.30
2024-03-16T02:23:46.662Z,98.30
2024-03-16T02:25:52.220Z,98.30
2024-03-16T02:28:02.144Z,98.30
2024-03-16T02:30:11.744Z,98.30
2024-03-16T02:32:17.193Z,98.30
2024-03-16T02:34:19.898Z,98.30
2024-03-16T02:36:25.318Z,98.30
2024-03-16T02:38:33.395Z,98.30
2024-03-16T02:40:39.931Z,98.30
2024-03-16T02:42:44.590Z,98.30
2024-03-16T02:44:50.155Z,98.40
2024-03-16T02:46:55.650Z,98.30
2024-03-16T02:49:03.241Z,98.30
2024-03-16T02:51:08.627Z,98.30
2024-03-16T02:53:14.832Z,98.30
2024-03-16T02:55:23.160Z,98.30
2024-03-16T02:57:28.859Z,98.30
2024-03-16T02:59:34.192Z,98.30
2024-03-16T03:01:40.772Z,98.30
2024-03-16T03:03:46.037Z,98.30
2024-03-16T03:05:51.178Z,98.30
2024-03-16T03:08:01.162Z,98.20
2024-03-16T03:10:07.688Z,98.20
2024-03-16T03:12:16.694Z,98.20
2024-03-16T03:14:22.780Z,98.20
2024-03-16T03:16:28.252Z,98.20
2024-03-16T03:18:34.729Z,98.20
2024-03-16T03:20:46.439Z,98.20
2024-03-16T03:22:52.109Z,98.20
2024-03-16T03:24:57.545Z,98.20
2024-03-16T03:27:03.104Z,98.10
2024-03-16T03:29:11.917Z,98.10
2024-03-16T03:31:15.011Z,98.10
2024-03-16T03:33:20.851Z,98.10
2024-03-16T03:35:25.999Z,98.10
2024-03-16T03:37:34.913Z,98.10
2024-03-16T03:39:40.570Z,98.10
2024-03-16T03:41:46.149Z,98.00
2024-03-16T03:44:01.552Z,98.00
2024-03-16T03:46:14.789Z,98.00
2024-03-16T03:48:26.845Z,98.00
2024-03-16T03:50:34.378Z,98.00
2024-03-16T03:52:40.781Z,98.10
2024-03-16T03:54:46.087Z,98.10
2024-03-16T03:56:51.746Z,98.00
2024-03-16T03:59:07.286Z,98.00
2024-03-16T04:01:15.523Z,98.00
2024-03-16T04:03:21.217Z,98.00
2024-03-16T04:05:27.571Z,98.00
2024-03-16T04:07:31.334Z,98.00
2024-03-16T04:09:36.667Z,98.00
2024-03-16T04:11:43.373Z,97.90
2024-03-16T04:13:48.524Z,97.90
2024-03-16T04:15:53.727Z,97.90
2024-03-16T04:18:01.758Z,97.80
2024-03-16T04:20:11.194Z,97.70
2024-03-16T04:22:17.308Z,97.70
2024-03-16T04:24:22.784Z,97.80
2024-03-16T04:26:29.047Z,97.90
2024-03-16T04:28:34.137Z,97.70
2024-03-16T04:30:39.329Z,97.80
2024-03-16T04:32:42.667Z,97.90
2024-03-16T04:34:50.840Z,97.80
2024-03-16T04:36:54.011Z,97.70
2024-03-16T04:39:01.057Z,97.70
2024-03-16T04:41:06.551Z,97.70
2024-03-16T04:43:11.993Z,97.70
2024-03-16T04:45:17.375Z,97.80
2024-03-16T04:47:22.582Z,97.80
2024-03-16T04:49:27.986Z,97.80
2024-03-16T04:51:36.378Z,97.80
2024-03-16T04:53:41.696Z,97.80
2024-03-16T04:55:44.391Z,97.70
2024-03-16T04:57:49.946Z,97.50
2024-03-16T04:59:55.080Z,97.20
2024-03-16T05:02:00.368Z,97.30
2024-03-16T05:04:02.958Z,97.70
2024-03-16T05:06:08.428Z,97.70
2024-03-16T05:08:15.574Z,97.70
2024-03-16T05:10:21.627Z,97.70
2024-03-16T05:12:26.951Z,97.70
2024-03-16T05:14:34.004Z,97.70
2024-03-16T05:16:41.802Z,97.70
2024-03-16T05:18:47.363Z,97.50
2024-03-16T05:20:54.770Z,97.40
2024-03-16T05:23:01.878Z,97.70
2024-03-16T05:25:10.908Z,97.40
2024-03-16T05:27:16.454Z,97.70
2024-03-16T05:29:22.138Z,97.70
2024-03-16T05:31:28.692Z,97.30
2024-03-16T05:33:36.659Z,97.50
2024-03-16T05:35:42.567Z,97.20
2024-03-16T05:37:49.037Z,97.10
2024-03-16T05:39:52.332Z,97.70
2024-03-16T05:42:00.717Z,97.40
2024-03-16T05:44:06.148Z,97.40
2024-03-16T05:46:11.449Z,97.00
2024-03-16T05:48:22.098Z,97.30
2024-03-16T05:50:24.761Z,96.60
2024-03-16T05:52:30.058Z,96.40
2024-03-16T05:54:36.038Z,96.50
2024-03-16T05:56:41.302Z,96.40
2024-03-16T05:58:49.075Z,96.60
2024-03-16T06:00:55.219Z,96.30
2024-03-16T06:03:00.878Z,96.20
2024-03-16T06:05:06.851Z,96.00
2024-03-16T06:07:12.793Z,96.30
2024-03-16T06:09:18.242Z,96.40
2024-03-16T06:11:28.142Z,96.00
2024-03-16T06:13:33.562Z,96.20
2024-03-16T06:15:42.882Z,96.40
2024-03-16T06:17:50.950Z,96.70
2024-03-16T06:19:56.215Z,96.50
2024-03-16T06:22:03.350Z,96.40
2024-03-16T06:24:09.135Z,96.50
2024-03-16T06:26:18.795Z,96.40
2024-03-16T06:28:25.764Z,96.50
2024-03-16T06:30:29.719Z,96.40
2024-03-16T06:32:45.953Z,96.60
2024-03-16T06:34:51.494Z,96.50
2024-03-16T06:36:57.102Z,96.10
2024-03-16T06:39:07.556Z,96.50
2024-03-16T06:41:12.852Z,96.30
2024-03-16T06:43:18.188Z,96.40
2024-03-16T06:45:23.523Z,96.00
2024-03-16T06:47:29.063Z,96.40
2024-03-16T06:49:38.481Z,95.90
2024-03-16T06:51:43.653Z,95.90
2024-03-16T06:53:48.673Z,95.50
2024-03-16T06:55:55.590Z,96.10
2024-03-16T06:58:00.802Z,96.00
2024-03-16T07:00:09.816Z,95.70
2024-03-16T07:02:15.278Z,96.20
2024-03-16T07:04:20.843Z,96.30
2024-03-16T07:06:29.232Z,95.10
2024-03-16T07:08:32.214Z,95.30
2024-03-16T07:10:38.077Z,95.50
2024-03-16T07:12:43.359Z,95.40
2024-03-16T07:14:49.351Z,95.00
2024-03-16T07:16:55.206Z,95.40
2024-03-16T07:19:04.455Z,95.80
2024-03-16T07:21:10.079Z,95.30
2024-03-16T07:23:17.923Z,95.70
2024-03-16T07:25:23.199Z,94.80
2024-03-16T07:27:26.043Z,94.40
2024-03-16T07:29:36.358Z,94.50
2024-03-16T07:31:41.803Z,94.00
2024-03-16T07:33:48.586Z,94.40
2024-03-16T07:35:54.280Z,94.10
2024-03-16T07:37:57.020Z,94.70
2024-03-16T07:40:05.053Z,94.50
2024-03-16T07:42:10.257Z,95.20
2024-03-16T07:44:13.763Z,95.60
2024-03-16T07:46:20.902Z,95.80
2024-03-16T07:48:27.545Z,94.90
2024-03-16T07:50:32.625Z,95.70
2024-03-16T07:52:38.144Z,95.40
2024-03-16T07:54:43.313Z,95.50
2024-03-16T07:56:51.246Z,95.50
2024-03-16T07:58:58.838Z,94.50
2024-03-16T08:01:05.929Z,95.70
2024-03-16T08:03:11.317Z,95.40
2024-03-16T08:05:16.902Z,95.40
2024-03-16T08:07:22.856Z,95.80
2024-03-16T08:09:28.080Z,94.90
2024-03-16T08:11:34.599Z,94.50
2024-03-16T08:13:42.430Z,94.10
2024-03-16T08:15:47.951Z,94.60
2024-03-16T08:17:53.387Z,94.00
2024-03-16T08:20:00.303Z,94.10
2024-03-16T08:22:06.049Z,93.90
2024-03-16T08:24:11.992Z,93.50
2024-03-16T08:26:17.372Z,93.10
2024-03-16T08:28:25.062Z,94.20
2024-03-16T08:30:33.098Z,93.70
2024-03-16T08:32:38.322Z,94.20
2024-03-16T08:34:43.822Z,92.90
2024-03-16T08:36:49.654Z,93.00
2024-03-16T08:38:58.034Z,94.20
2024-03-16T08:41:06.177Z,94.40
2024-03-16T08:43:12.412Z,93.90
2024-03-16T08:45:18.222Z,93.80
2024-03-16T08:47:24.073Z,94.70
2024-03-16T08:49:29.569Z,95.10
2024-03-16T08:51:32.286Z,95.20
2024-03-16T08:53:37.499Z,95.40
2024-03-16T08:55:42.823Z,95.70
2024-03-16T08:57:49.379Z,95.50
2024-03-16T08:59:54.873Z,95.50
2024-03-16T09:02:00.845Z,95.70
2024-03-16T09:04:09.752Z,96.40
2024-03-16T09:06:13.406Z,96.30
2024-03-16T09:08:18.885Z,96.40
2024-03-16T09:10:25.338Z,95.60
2024-03-16T09:12:30.715Z,96.20
2024-03-16T09:14:36.629Z,95.20
2024-03-16T09:16:42.864Z,95.40
2024-03-16T09:18:56.696Z,94.90
2024-03-16T09:21:06.704Z,95.50
2024-03-16T09:23:14.980Z,94.90
2024-03-16T09:25:21.966Z,93.50
2024-03-16T09:27:31.858Z,94.80
2024-03-16T09:29:37.228Z,93.80
2024-03-16T09:31:42.460Z,92.70
2024-03-16T09:33:48.179Z,93.90
2024-03-16T09:35:56.643Z,92.90
2024-03-16T09:38:02.077Z,92.60
2024-03-16T09:40:11.859Z,92.50
2024-03-16T09:42:17.747Z,92.20
